Time;durP1;ratioP1;P1;durP2;ratioP2;P2;SDS_P1;SDS_P2;PMS_P1;PMS_P2;Temp;Humidity;BMP_temperature;BMP_pressure;BME280_temperature;BME280_humidity;BME280_pressure;Samples;Min_cycle;Max_cycle;Signal;HPM_P1;HPM_P2
2021/05/10 00:01:31;;;;;;;3.75;1.42;;;20.30;99.90;;;;;;4942056;28;20222;-40
2021/05/10 00:03:58;;;;;;;1.30;1.15;;;20.20;99.90;;;;;;4948168;28;20311;-39
2021/05/10 00:06:25;;;;;;;1.90;1.27;;;20.20;99.90;;;;;;4931794;29;20200;-40
2021/05/10 00:08:52;;;;;;;3.15;1.25;;;20.00;99.90;;;;;;4930695;29;20210;-39
2021/05/10 00:11:19;;;;;;;2.58;1.40;;;19.80;99.90;;;;;;4932035;29;20618;-39
2021/05/10 00:13:48;;;;;;;3.75;1.70;;;19.80;99.90;;;;;;4938095;29;20206;-38
2021/05/10 00:16:15;;;;;;;1.27;1.13;;;19.70;99.90;;;;;;4950943;28;20202;-38
2021/05/10 00:18:42;;;;;;;3.30;1.55;;;19.60;99.90;;;;;;4937594;28;20204;-38
2021/05/10 00:21:09;;;;;;;2.33;0.90;;;19.60;99.90;;;;;;4932658;29;20222;-39
2021/05/10 00:23:36;;;;;;;1.60;1.02;;;19.60;99.90;;;;;;4949855;28;20339;-40
2021/05/10 00:26:03;;;;;;;2.33;1.40;;;19.70;99.90;;;;;;4951406;28;20293;-39
2021/05/10 00:28:30;;;;;;;2.17;1.10;;;19.70;99.90;;;;;;4946218;28;20758;-40
2021/05/10 00:30:56;;;;;;;1.77;1.50;;;19.50;99.90;;;;;;4949132;28;20362;-39
2021/05/10 00:33:23;;;;;;;1.63;1.42;;;19.50;99.90;;;;;;4942017;29;20215;-39
2021/05/10 00:35:50;;;;;;;1.63;1.35;;;19.40;99.90;;;;;;4938037;28;20202;-39
2021/05/10 00:38:17;;;;;;;3.00;1.15;;;19.40;99.90;;;;;;4943786;29;20199;-40
2021/05/10 00:40:44;;;;;;;1.27;1.17;;;19.30;99.90;;;;;;4935460;29;20203;-39
2021/05/10 00:43:11;;;;;;;3.67;1.80;;;19.30;99.90;;;;;;4952868;28;20222;-40
2021/05/10 00:45:38;;;;;;;1.88;1.77;;;19.40;99.90;;;;;;4939674;28;20199;-39
2021/05/10 00:48:06;;;;;;;3.33;1.55;;;19.50;99.90;;;;;;4936565;29;20195;-39
2021/05/10 00:50:33;;;;;;;2.38;1.48;;;19.50;99.90;;;;;;4934937;29;20203;-39
2021/05/10 00:53:00;;;;;;;2.17;1.60;;;19.50;99.90;;;;;;4944788;29;20211;-40
2021/05/10 00:55:27;;;;;;;3.13;1.63;;;19.40;99.90;;;;;;4935420;29;20239;-40
2021/05/10 00:58:01;;;;;;;2.13;1.45;;;19.40;99.90;;;;;;4943443;28;20295;-40
2021/05/10 01:00:30;;;;;;;1.80;1.58;;;19.40;99.90;;;;;;4935081;29;20202;-39
2021/05/10 01:03:08;;;;;;;4.07;2.47;;;19.30;99.90;;;;;;4952912;28;20274;-39
2021/05/10 01:05:37;;;;;;;4.30;2.05;;;19.30;99.90;;;;;;4952134;28;20214;-41
2021/05/10 01:08:05;;;;;;;3.35;2.35;;;19.20;99.90;;;;;;4953950;28;20261;-40
2021/05/10 01:10:32;;;;;;;3.00;1.52;;;19.10;99.90;;;;;;4937081;28;20204;-40
2021/05/10 01:13:00;;;;;;;1.20;1.10;;;19.00;99.90;;;;;;4941699;29;20207;-40
2021/05/10 01:15:27;;;;;;;1.48;1.27;;;19.10;99.90;;;;;;4944842;29;20245;-39
2021/05/10 01:17:53;;;;;;;2.42;1.48;;;19.10;99.90;;;;;;4953577;28;20709;-39
2021/05/10 01:20:23;;;;;;;2.30;1.30;;;19.10;99.90;;;;;;4951407;28;20191;-39
2021/05/10 01:22:52;;;;;;;1.58;1.42;;;19.00;99.90;;;;;;4951101;28;20294;-39
2021/05/10 01:25:21;;;;;;;2.53;1.85;;;19.00;99.90;;;;;;4943113;28;20210;-40
2021/05/10 01:27:47;;;;;;;2.10;1.42;;;18.90;99.90;;;;;;4934808;29;20274;-39
2021/05/10 01:30:18;;;;;;;1.88;1.45;;;18.90;99.90;;;;;;4942630;29;20199;-39
2021/05/10 01:32:45;;;;;;;1.40;1.30;;;18.90;99.90;;;;;;4935400;28;20246;-40
2021/05/10 01:35:13;;;;;;;1.92;1.83;;;18.90;99.90;;;;;;4936272;29;20582;-39
2021/05/10 01:37:39;;;;;;;3.47;1.92;;;18.90;99.90;;;;;;4952969;28;20696;-39
2021/05/10 01:40:09;;;;;;;1.90;1.63;;;18.80;99.90;;;;;;4934059;29;20207;-39
2021/05/10 01:42:35;;;;;;;2.40;1.77;;;18.60;99.90;;;;;;4940804;29;20250;-39
2021/05/10 01:45:03;;;;;;;1.95;1.23;;;18.50;99.90;;;;;;4943347;29;20195;-39
2021/05/10 01:47:30;;;;;;;2.15;1.20;;;18.50;99.90;;;;;;4953093;28;20194;-39
2021/05/10 01:49:56;;;;;;;2.40;1.40;;;18.60;99.90;;;;;;4951309;28;20201;-39
2021/05/10 01:52:23;;;;;;;4.30;1.70;;;18.50;99.90;;;;;;4953339;28;20223;-40
2021/05/10 01:54:51;;;;;;;2.45;1.67;;;18.40;99.90;;;;;;4939841;28;20192;-39
2021/05/10 01:57:20;;;;;;;2.33;1.55;;;18.40;99.90;;;;;;4947240;29;20257;-39
2021/05/10 01:59:47;;;;;;;2.25;1.60;;;18.30;99.90;;;;;;4946970;28;20585;-39
2021/05/10 02:02:14;;;;;;;2.72;1.50;;;18.20;99.90;;;;;;4953029;28;20211;-39
2021/05/10 02:05:07;;;;;;;2.28;1.60;;;18.20;99.90;;;;;;4936198;29;20206;-40
2021/05/10 02:07:36;;;;;;;2.08;1.40;;;18.30;99.90;;;;;;4948691;29;20199;-39
2021/05/10 02:10:04;;;;;;;3.65;1.67;;;18.30;99.90;;;;;;4941074;28;20475;-39
2021/05/10 02:12:32;;;;;;;3.70;1.73;;;18.20;99.90;;;;;;4933715;29;20234;-39
2021/05/10 02:14:59;;;;;;;2.88;1.88;;;18.20;99.90;;;;;;4949913;29;20227;-41
2021/05/10 02:17:26;;;;;;;2.67;1.55;;;18.10;99.90;;;;;;4934011;28;20274;-40
2021/05/10 02:19:53;;;;;;;2.15;1.40;;;18.10;99.90;;;;;;4952317;28;20215;-39
2021/05/10 02:22:19;;;;;;;1.88;1.20;;;18.20;99.90;;;;;;4952274;28;20712;-39
2021/05/10 02:24:46;;;;;;;1.65;1.20;;;18.30;99.90;;;;;;4937595;28;20207;-39
2021/05/10 02:27:13;;;;;;;1.90;1.40;;;18.40;99.90;;;;;;4933651;29;20231;-40
2021/05/10 02:29:41;;;;;;;2.55;1.40;;;18.50;99.90;;;;;;4934340;29;20200;-40
2021/05/10 02:32:08;;;;;;;1.95;1.58;;;18.60;99.90;;;;;;4932741;29;20246;-40
2021/05/10 02:34:34;;;;;;;1.65;1.55;;;18.60;99.90;;;;;;4951796;28;20238;-39
2021/05/10 02:37:01;;;;;;;2.08;1.02;;;18.60;99.90;;;;;;4937913;28;20211;-39
2021/05/10 02:39:27;;;;;;;4.40;1.58;;;18.60;99.90;;;;;;4935097;29;20210;-39
2021/05/10 02:41:54;;;;;;;2.75;1.45;;;18.50;99.90;;;;;;4937966;29;20206;-39
2021/05/10 02:44:21;;;;;;;5.60;1.92;;;18.50;99.90;;;;;;4944103;28;20271;-39
2021/05/10 02:46:48;;;;;;;2.63;1.60;;;18.50;99.90;;;;;;4951121;29;20191;-39
2021/05/10 02:49:15;;;;;;;1.98;1.60;;;18.60;99.90;;;;;;4943670;28;20218;-39
2021/05/10 02:51:42;;;;;;;3.88;1.80;;;18.60;99.90;;;;;;4949664;28;20234;-39
2021/05/10 02:54:36;;;;;;;1.77;1.60;;;18.50;99.90;;;;;;5108669;27;20520;-39
2021/05/10 02:57:03;;;;;;;1.85;1.40;;;18.50;99.90;;;;;;5107386;28;20614;-41
2021/05/10 02:59:29;;;;;;;1.75;1.52;;;18.50;99.90;;;;;;5092619;28;20281;-39
2021/05/10 03:01:56;;;;;;;1.40;1.15;;;18.50;99.90;;;;;;5078835;28;20367;-38
2021/05/10 03:04:23;;;;;;;1.38;1.27;;;18.50;99.90;;;;;;5077908;28;20214;-40
2021/05/10 03:06:49;;;;;;;3.00;1.30;;;18.50;99.90;;;;;;5059147;22;20270;-39
2021/05/10 03:09:16;;;;;;;2.50;1.38;;;18.50;99.90;;;;;;5035051;28;20487;-39
2021/05/10 03:11:44;;;;;;;3.22;1.30;;;18.60;99.90;;;;;;5044842;28;20194;-40
2021/05/10 03:14:11;;;;;;;9.27;1.40;;;18.60;99.90;;;;;;5039134;28;20208;-39
2021/05/10 03:16:38;;;;;;;2.40;1.50;;;18.60;99.90;;;;;;5045274;28;20221;-41
2021/05/10 03:19:09;;;;;;;2.55;1.52;;;18.70;99.90;;;;;;5045179;28;20195;-41
2021/05/10 03:21:36;;;;;;;1.88;1.60;;;18.80;99.90;;;;;;5038056;28;20256;-40
2021/05/10 03:24:04;;;;;;;2.00;1.60;;;18.80;99.90;;;;;;5040835;28;20242;-42
2021/05/10 03:26:31;;;;;;;1.50;1.40;;;18.90;99.90;;;;;;5028252;28;20231;-40
2021/05/10 03:28:58;;;;;;;1.13;1.10;;;18.90;99.90;;;;;;5039633;28;20187;-41
2021/05/10 03:31:25;;;;;;;1.65;1.55;;;18.90;99.90;;;;;;5042674;28;20196;-41
2021/05/10 03:33:52;;;;;;;4.45;1.60;;;18.90;99.90;;;;;;5027160;28;20213;-40
2021/05/10 03:36:18;;;;;;;2.08;1.13;;;18.90;99.90;;;;;;5033088;28;20238;-39
2021/05/10 03:38:45;;;;;;;4.30;1.20;;;18.90;99.90;;;;;;5046464;28;20196;-41
2021/05/10 03:41:12;;;;;;;3.63;1.60;;;18.90;99.90;;;;;;5045153;28;20215;-40
2021/05/10 03:43:39;;;;;;;2.90;1.75;;;18.90;99.90;;;;;;5042852;28;20694;-40
2021/05/10 03:46:07;;;;;;;3.58;1.70;;;18.90;99.90;;;;;;5028229;28;20212;-38
2021/05/10 03:48:34;;;;;;;4.38;2.05;;;18.90;99.90;;;;;;5046557;28;20248;-43
2021/05/10 03:51:00;;;;;;;2.55;1.67;;;18.90;99.90;;;;;;5046256;28;20641;-39
2021/05/10 03:53:27;;;;;;;1.40;1.30;;;18.80;99.90;;;;;;5028332;28;20228;-39
2021/05/10 03:55:53;;;;;;;1.80;1.70;;;18.80;99.90;;;;;;5034412;28;20285;-39
2021/05/10 03:58:20;;;;;;;2.53;1.70;;;18.70;99.90;;;;;;5027909;28;20616;-41
2021/05/10 04:00:47;;;;;;;3.42;2.13;;;18.70;99.90;;;;;;5008995;28;20204;-39
2021/05/10 04:03:16;;;;;;;1.80;1.50;;;18.80;99.90;;;;;;5041289;28;20264;-41
2021/05/10 04:06:06;;;;;;;1.88;1.60;;;18.70;99.90;;;;;;5034278;28;20645;-39
2021/05/10 04:08:52;;;;;;;2.33;2.13;;;18.60;99.90;;;;;;5015366;28;20200;-40
2021/05/10 04:11:31;;;;;;;2.15;1.67;;;18.60;99.90;;;;;;5017740;28;20197;-39
2021/05/10 04:14:00;;;;;;;1.58;1.40;;;18.60;99.90;;;;;;5014748;28;20240;-40
2021/05/10 04:16:28;;;;;;;3.22;1.45;;;18.60;99.90;;;;;;5013343;28;20597;-39
2021/05/10 04:18:55;;;;;;;2.85;1.75;;;18.70;99.90;;;;;;5027971;28;20691;-40
2021/05/10 04:21:22;;;;;;;2.47;1.98;;;18.60;99.90;;;;;;5030897;28;20200;-38
2021/05/10 04:23:49;;;;;;;3.58;1.90;;;18.60;99.90;;;;;;5032440;28;20192;-39
2021/05/10 04:26:16;;;;;;;3.55;2.45;;;18.70;99.90;;;;;;5022306;28;20251;-42
2021/05/10 04:28:42;;;;;;;4.25;2.83;;;18.80;99.90;;;;;;5013654;28;20614;-39
2021/05/10 04:31:09;;;;;;;4.97;2.13;;;18.90;99.90;;;;;;5012888;28;20196;-41
2021/05/10 04:33:35;;;;;;;2.03;1.75;;;18.90;99.90;;;;;;5021089;28;20223;-39
2021/05/10 04:36:03;;;;;;;3.80;2.38;;;18.80;99.90;;;;;;5032507;28;20216;-39
2021/05/10 04:38:30;;;;;;;3.95;1.88;;;18.80;99.90;;;;;;5015901;28;20266;-39
2021/05/10 04:40:57;;;;;;;2.40;2.05;;;18.70;99.90;;;;;;5020978;28;20573;-41
2021/05/10 04:43:23;;;;;;;4.38;1.70;;;18.80;99.90;;;;;;5021054;28;20193;-40
2021/05/10 04:45:50;;;;;;;2.33;2.08;;;18.90;99.90;;;;;;5013257;28;20307;-39
2021/05/10 04:48:17;;;;;;;3.38;1.60;;;18.90;99.90;;;;;;5012546;28;20294;-41
2021/05/10 04:50:45;;;;;;;4.53;1.75;;;19.00;99.90;;;;;;5026334;28;20608;-39
2021/05/10 04:53:13;;;;;;;4.38;2.80;;;19.00;99.90;;;;;;5019772;28;20216;-41
2021/05/10 04:55:40;;;;;;;11.60;8.23;;;19.10;99.90;;;;;;5026106;28;20732;-42
2021/05/10 04:58:07;;;;;;;3.80;2.03;;;19.20;99.90;;;;;;5013081;28;20204;-39
2021/05/10 05:00:34;;;;;;;5.18;1.92;;;19.20;99.90;;;;;;5020111;28;20287;-42
2021/05/10 05:03:01;;;;;;;4.00;2.00;;;19.10;99.90;;;;;;4995630;28;20189;-38
2021/05/10 05:05:28;;;;;;;1.60;1.50;;;19.10;99.90;;;;;;5024831;28;20307;-41
2021/05/10 05:07:55;;;;;;;4.20;1.85;;;19.10;99.90;;;;;;5022096;28;20201;-39
2021/05/10 05:10:23;;;;;;;2.15;1.75;;;19.10;99.90;;;;;;5017090;28;20211;-41
2021/05/10 05:12:50;;;;;;;3.38;2.22;;;19.10;99.90;;;;;;5030914;28;20677;-39
2021/05/10 05:15:18;;;;;;;4.75;2.08;;;19.10;99.90;;;;;;5017045;28;20224;-42
2021/05/10 05:17:45;;;;;;;8.65;2.35;;;19.00;99.90;;;;;;5020936;28;20203;-40
2021/05/10 05:20:12;;;;;;;4.57;1.90;;;18.90;99.90;;;;;;5021063;28;20212;-39
2021/05/10 05:22:39;;;;;;;5.97;2.20;;;18.90;99.90;;;;;;5021795;28;20204;-40
2021/05/10 05:25:07;;;;;;;3.22;2.13;;;18.90;99.90;;;;;;5019720;28;20307;-41
2021/05/10 05:27:36;;;;;;;3.40;2.40;;;18.80;99.90;;;;;;5028189;28;20590;-40
2021/05/10 05:30:03;;;;;;;3.88;2.72;;;18.80;99.90;;;;;;4994353;28;20582;-41
2021/05/10 05:32:30;;;;;;;4.47;2.45;;;18.90;99.90;;;;;;5017912;28;20210;-41
2021/05/10 05:34:57;;;;;;;2.40;2.13;;;18.90;99.90;;;;;;5025617;28;20200;-40
2021/05/10 05:37:24;;;;;;;2.55;2.35;;;18.90;99.90;;;;;;4998068;28;20679;-40
2021/05/10 05:39:50;;;;;;;1.80;1.70;;;19.00;99.90;;;;;;5014960;28;20202;-39
2021/05/10 05:42:18;;;;;;;4.25;3.53;;;19.00;99.90;;;;;;5025956;28;20198;-39
2021/05/10 05:44:48;;;;;;;3.80;2.53;;;19.10;99.90;;;;;;5021034;28;20197;-40
2021/05/10 05:47:22;;;;;;;16.17;10.55;;;19.10;99.90;;;;;;5011012;28;20196;-39
2021/05/10 05:49:49;;;;;;;4.63;2.25;;;19.10;99.90;;;;;;5018517;28;20196;-41
2021/05/10 05:52:17;;;;;;;4.97;2.20;;;19.10;99.90;;;;;;5028746;28;20611;-39
2021/05/10 05:54:43;;;;;;;3.67;2.00;;;19.20;99.90;;;;;;5016706;28;20635;-39
2021/05/10 05:57:11;;;;;;;2.08;1.92;;;19.10;99.90;;;;;;5012496;28;20200;-40
2021/05/10 05:59:38;;;;;;;2.95;1.77;;;19.10;99.90;;;;;;5025110;28;20220;-41
2021/05/10 06:02:06;;;;;;;3.08;1.92;;;19.10;99.90;;;;;;5026999;28;20613;-40
2021/05/10 06:04:32;;;;;;;2.53;1.73;;;19.10;99.90;;;;;;5019513;28;20677;-40
2021/05/10 06:06:59;;;;;;;3.97;2.00;;;19.10;99.90;;;;;;4993554;28;20232;-44
2021/05/10 06:09:26;;;;;;;3.67;2.63;;;19.10;99.90;;;;;;5023292;28;20203;-46
2021/05/10 06:11:55;;;;;;;5.50;1.98;;;19.10;99.90;;;;;;5018937;28;20251;-43
2021/05/10 06:14:23;;;;;;;2.80;2.05;;;18.90;99.90;;;;;;5012046;28;20209;-40
2021/05/10 06:16:49;;;;;;;2.60;1.60;;;18.90;99.90;;;;;;5012907;28;20209;-42
2021/05/10 06:19:17;;;;;;;2.47;2.28;;;19.10;99.90;;;;;;5026371;28;20278;-41
2021/05/10 06:21:44;;;;;;;3.88;1.90;;;19.30;99.90;;;;;;5025074;28;20290;-41
2021/05/10 06:24:11;;;;;;;2.42;1.88;;;19.40;99.90;;;;;;5017894;28;20242;-42
2021/05/10 06:26:40;;;;;;;3.65;2.17;;;19.60;99.90;;;;;;5000194;28;20278;-40
2021/05/10 06:29:06;;;;;;;2.63;1.73;;;19.70;99.90;;;;;;5017645;28;20188;-41
2021/05/10 06:31:33;;;;;;;2.20;2.00;;;19.80;99.90;;;;;;5030055;28;20200;-41
2021/05/10 06:34:02;;;;;;;2.75;1.70;;;20.00;99.90;;;;;;5024646;28;20266;-40
2021/05/10 06:36:30;;;;;;;2.47;1.85;;;20.10;99.90;;;;;;5019475;28;20600;-41
2021/05/10 06:38:56;;;;;;;3.90;1.95;;;20.30;99.90;;;;;;5015886;28;20288;-43
2021/05/10 06:41:23;;;;;;;2.20;1.67;;;20.30;99.90;;;;;;5011878;28;20195;-40
2021/05/10 06:43:49;;;;;;;4.50;1.73;;;20.50;99.90;;;;;;5020807;28;20647;-43
2021/05/10 06:46:16;;;;;;;4.82;2.20;;;20.50;99.90;;;;;;5022576;28;20295;-41
2021/05/10 06:48:43;;;;;;;1.75;1.60;;;20.50;99.90;;;;;;5010481;28;20199;-41
2021/05/10 06:51:10;;;;;;;3.60;2.03;;;20.60;99.90;;;;;;5020584;28;20283;-40
2021/05/10 06:53:37;;;;;;;2.58;1.80;;;20.70;99.90;;;;;;5023342;28;20217;-42
2021/05/10 06:56:04;;;;;;;4.18;2.17;;;21.00;99.90;;;;;;5016814;28;20280;-40
2021/05/10 06:58:31;;;;;;;3.70;1.52;;;21.20;99.90;;;;;;5016885;28;20203;-41
2021/05/10 07:00:58;;;;;;;5.03;1.85;;;21.40;99.90;;;;;;5016773;28;20224;-41
2021/05/10 07:03:25;;;;;;;2.53;1.48;;;21.60;99.90;;;;;;5018745;28;20717;-39
2021/05/10 07:05:51;;;;;;;2.75;1.60;;;21.70;99.90;;;;;;5022040;28;20314;-41
2021/05/10 07:08:18;;;;;;;6.70;1.75;;;21.80;99.90;;;;;;5016078;28;20193;-40
2021/05/10 07:10:48;;;;;;;2.42;1.95;;;21.70;99.90;;;;;;5015486;28;20686;-44
2021/05/10 07:13:15;;;;;;;3.38;1.77;;;21.60;99.90;;;;;;5023108;28;20317;-38
2021/05/10 07:16:04;;;;;;;3.35;1.80;;;21.60;99.90;;;;;;5017925;28;20331;-39
2021/05/10 07:18:31;;;;;;;3.80;1.75;;;21.80;99.90;;;;;;5018216;28;20211;-39
2021/05/10 07:20:57;;;;;;;3.17;1.30;;;21.80;99.90;;;;;;5018933;28;20193;-40
2021/05/10 07:23:24;;;;;;;3.10;1.38;;;21.70;99.90;;;;;;5024007;28;20200;-39
2021/05/10 07:25:52;;;;;;;4.55;1.60;;;21.70;99.90;;;;;;5029706;28;20246;-39
2021/05/10 07:28:19;;;;;;;3.33;1.75;;;21.70;99.90;;;;;;5029831;28;20749;-39
2021/05/10 07:30:47;;;;;;;2.33;1.50;;;21.70;99.90;;;;;;5029377;28;20188;-38
2021/05/10 07:33:14;;;;;;;3.08;1.55;;;21.70;99.90;;;;;;5030239;28;20224;-40
2021/05/10 07:35:41;;;;;;;1.75;1.30;;;21.70;99.90;;;;;;5014757;28;20243;-39
2021/05/10 07:38:08;;;;;;;4.45;1.95;;;21.70;99.90;;;;;;5021684;28;20254;-39
2021/05/10 07:40:35;;;;;;;2.70;1.33;;;21.70;99.90;;;;;;5024703;28;20249;-39
2021/05/10 07:43:03;;;;;;;3.92;1.65;;;21.70;99.90;;;;;;5013296;28;20298;-41
2021/05/10 07:45:29;;;;;;;2.17;1.42;;;21.70;99.90;;;;;;5020092;28;20593;-39
2021/05/10 07:47:57;;;;;;;2.30;1.50;;;21.80;99.90;;;;;;5033568;28;20192;-41
2021/05/10 07:50:26;;;;;;;3.15;1.48;;;21.90;99.90;;;;;;5032852;28;20663;-38
2021/05/10 07:52:52;;;;;;;3.38;1.50;;;21.90;99.90;;;;;;5033293;28;20220;-39
2021/05/10 07:55:21;;;;;;;2.10;1.67;;;22.10;99.90;;;;;;5033089;28;20224;-39
2021/05/10 07:57:47;;;;;;;2.42;1.52;;;22.20;99.90;;;;;;5025260;28;20246;-39
2021/05/10 08:00:20;;;;;;;4.70;1.80;;;22.20;99.90;;;;;;5024205;28;20196;-39
2021/05/10 08:02:50;;;;;;;2.50;1.75;;;22.10;99.90;;;;;;5013308;28;20212;-40
2021/05/10 08:05:17;;;;;;;4.47;1.52;;;22.00;99.90;;;;;;5020180;28;20718;-38
2021/05/10 08:07:43;;;;;;;2.67;1.58;;;22.00;99.90;;;;;;5032902;28;20633;-39
2021/05/10 08:10:12;;;;;;;1.92;1.40;;;22.10;99.90;;;;;;5032679;28;20188;-41
2021/05/10 08:12:38;;;;;;;2.95;1.90;;;22.20;99.90;;;;;;5032998;28;20294;-39
2021/05/10 08:15:06;;;;;;;2.20;1.20;;;22.30;99.90;;;;;;5031895;28;20581;-40
2021/05/10 08:17:35;;;;;;;2.45;2.20;;;22.30;99.90;;;;;;5027962;28;20686;-39
2021/05/10 08:20:02;;;;;;;2.45;1.80;;;22.30;99.90;;;;;;5027962;28;20232;-39
2021/05/10 08:22:29;;;;;;;2.05;1.55;;;22.30;99.90;;;;;;5019883;28;20707;-40
2021/05/10 08:24:56;;;;;;;5.22;1.92;;;22.30;99.90;;;;;;5024790;28;20193;-39
2021/05/10 08:27:23;;;;;;;4.05;1.90;;;22.40;99.90;;;;;;5024144;28;20291;-39
2021/05/10 08:29:50;;;;;;;6.32;1.67;;;22.50;99.90;;;;;;5032250;28;20196;-39
2021/05/10 08:32:16;;;;;;;3.15;1.83;;;22.50;99.90;;;;;;5013525;28;20561;-40
2021/05/10 08:34:44;;;;;;;2.00;1.48;;;22.50;99.90;;;;;;5007017;28;20215;-40
2021/05/10 08:37:11;;;;;;;2.08;1.40;;;22.50;99.90;;;;;;5029093;28;20270;-38
2021/05/10 08:39:37;;;;;;;1.40;1.30;;;22.50;99.90;;;;;;5028975;28;20296;-38
2021/05/10 08:42:04;;;;;;;3.25;1.55;;;22.60;99.90;;;;;;5030798;28;20214;-42
2021/05/10 08:44:30;;;;;;;1.20;1.10;;;22.60;99.90;;;;;;4998071;28;20215;-40
2021/05/10 08:46:59;;;;;;;2.75;1.98;;;22.70;99.90;;;;;;5015200;28;20236;-39
2021/05/10 08:49:25;;;;;;;1.33;1.20;;;22.90;99.90;;;;;;5022572;28;20262;-39
2021/05/10 08:51:53;;;;;;;3.10;1.90;;;23.10;99.90;;;;;;5016621;28;20196;-39
2021/05/10 08:54:24;;;;;;;4.88;1.60;;;23.10;99.90;;;;;;5003175;28;20219;-39
2021/05/10 08:56:52;;;;;;;6.07;1.65;;;23.20;99.90;;;;;;5015688;28;20220;-39
2021/05/10 08:59:20;;;;;;;2.92;1.38;;;23.20;99.90;;;;;;5020317;28;20194;-44
2021/05/10 09:01:49;;;;;;;1.67;1.58;;;23.30;99.90;;;;;;5028581;28;20200;-39
2021/05/10 09:04:16;;;;;;;3.08;1.55;;;23.40;99.90;;;;;;5024393;28;20220;-42
2021/05/10 09:06:43;;;;;;;1.88;1.50;;;23.40;99.90;;;;;;5038211;22;20289;-37
2021/05/10 09:09:11;;;;;;;2.25;1.38;;;23.50;99.90;;;;;;5016350;28;20196;-37
2021/05/10 09:11:53;;;;;;;1.35;1.25;;;23.50;99.90;;;;;;5014792;28;20230;-37
2021/05/10 09:14:33;;;;;;;4.13;1.42;;;23.50;99.90;;;;;;5018862;28;20216;-39
2021/05/10 09:17:00;;;;;;;4.57;2.10;;;23.60;99.90;;;;;;5015776;28;20220;-39
2021/05/10 09:19:40;;;;;;;4.43;1.58;;;23.80;99.90;;;;;;5017195;28;20211;-38
2021/05/10 09:22:07;;;;;;;3.47;1.85;;;24.30;99.90;;;;;;5029362;28;20203;-38
2021/05/10 09:24:44;;;;;;;3.20;1.70;;;24.50;99.90;;;;;;5023549;28;20200;-38
2021/05/10 09:27:25;;;;;;;3.22;1.70;;;24.70;99.90;;;;;;5016462;28;20222;-38
2021/05/10 09:30:09;;;;;;;3.17;2.05;;;24.60;99.90;;;;;;5029695;28;20200;-40
2021/05/10 09:32:37;;;;;;;1.52;1.20;;;24.80;99.90;;;;;;5024008;28;20203;-38
2021/05/10 09:35:26;;;;;;;1.67;1.50;;;24.70;99.90;;;;;;5026962;28;20585;-38
2021/05/10 09:37:59;;;;;;;2.42;1.45;;;24.80;99.90;;;;;;5007199;28;20694;-39
2021/05/10 09:40:31;;;;;;;3.35;1.65;;;25.30;99.90;;;;;;5028482;28;20215;-38
2021/05/10 09:42:59;;;;;;;3.33;1.45;;;24.90;99.90;;;;;;5024225;28;20200;-38
2021/05/10 09:45:39;;;;;;;3.60;1.92;;;25.20;99.90;;;;;;5015031;28;20213;-37
2021/05/10 09:48:12;;;;;;;2.00;1.63;;;25.30;99.90;;;;;;5004055;28;20444;-38
2021/05/10 09:50:40;;;;;;;1.92;1.60;;;25.30;99.90;;;;;;5022954;28;20254;-38
2021/05/10 09:53:11;;;;;;;3.17;1.33;;;25.50;99.90;;;;;;5021450;28;20200;-38
2021/05/10 09:55:42;;;;;;;2.40;1.98;;;25.30;99.90;;;;;;5024305;28;20273;-38
2021/05/10 09:58:09;;;;;;;2.00;1.10;;;25.30;99.90;;;;;;5011559;28;20188;-41
2021/05/10 10:00:37;;;;;;;3.15;1.58;;;25.40;99.90;;;;;;5011012;28;20212;-39
2021/05/10 10:03:05;;;;;;;1.52;1.27;;;25.30;99.90;;;;;;5013744;28;20284;-38
2021/05/10 10:05:33;;;;;;;2.58;1.20;;;25.20;99.90;;;;;;5011114;28;20431;-37
2021/05/10 10:08:01;;;;;;;5.15;1.77;;;25.00;99.90;;;;;;5016041;28;20637;-37
2021/05/10 10:10:28;;;;;;;3.15;1.77;;;25.30;99.90;;;;;;5015217;28;20659;-40
2021/05/10 10:12:56;;;;;;;3.63;1.40;;;25.40;99.90;;;;;;5022258;28;20570;-37
2021/05/10 10:15:22;;;;;;;5.20;2.03;;;25.30;99.90;;;;;;5012506;28;20753;-37
2021/05/10 10:17:50;;;;;;;2.95;1.20;;;25.40;99.90;;;;;;5016212;28;20391;-37
2021/05/10 10:20:19;;;;;;;2.42;1.25;;;25.60;99.90;;;;;;5030038;22;20234;-83
2021/05/10 10:22:46;;;;;;;1.40;1.20;;;25.80;99.90;;;;;;5007286;28;20196;-81
2021/05/10 10:25:13;;;;;;;3.78;1.42;;;25.90;99.90;;;;;;4999394;28;20508;-81
2021/05/10 10:27:40;;;;;;;2.53;1.60;;;25.90;99.90;;;;;;5007398;28;20206;-81
2021/05/10 10:30:11;;;;;;;1.55;1.40;;;25.80;99.90;;;;;;4995446;28;20205;-80
2021/05/10 10:32:39;;;;;;;4.35;1.42;;;25.70;99.90;;;;;;4983707;28;20197;-80
2021/05/10 10:35:08;;;;;;;3.72;1.73;;;25.70;99.90;;;;;;4997724;28;20225;-81
2021/05/10 10:37:36;;;;;;;3.53;1.60;;;26.00;99.90;;;;;;5000103;28;20202;-84
2021/05/10 10:40:15;;;;;;;5.75;1.70;;;26.40;99.90;;;;;;5001218;28;20205;-84
2021/05/10 10:42:42;;;;;;;2.20;1.60;;;26.60;99.90;;;;;;5003056;28;20201;-83
2021/05/10 10:45:11;;;;;;;2.30;1.60;;;26.60;99.90;;;;;;4983623;28;20291;-81
2021/05/10 10:47:45;;;;;;;2.28;1.75;;;26.70;99.90;;;;;;5008306;28;20365;-81
2021/05/10 10:50:14;;;;;;;6.95;1.88;;;26.80;99.90;;;;;;5017357;28;20227;-83
2021/05/10 10:52:49;;;;;;;2.53;1.90;;;27.20;99.90;;;;;;5016944;28;20205;-80
2021/05/10 10:55:18;;;;;;;2.25;1.30;;;27.30;99.90;;;;;;5011524;28;20244;-80
2021/05/10 10:57:50;;;;;;;1.70;1.40;;;26.90;99.90;;;;;;5000241;28;20201;-86
2021/05/10 11:00:19;;;;;;;5.43;2.40;;;26.50;99.90;;;;;;4999966;28;20655;-88
2021/05/10 11:02:47;;;;;;;3.53;1.35;;;26.20;99.90;;;;;;5020165;28;20208;-89
2021/05/10 11:05:16;;;;;;;1.70;1.33;;;26.10;99.90;;;;;;4997969;28;20233;-87
2021/05/10 11:07:52;;;;;;;4.00;1.80;;;26.40;99.90;;;;;;4983256;28;20229;-87
2021/05/10 11:10:49;;;;;;;4.05;1.30;;;26.40;99.90;;;;;;4984712;28;20643;-86
2021/05/10 11:13:37;;;;;;;7.40;1.88;;;26.20;99.90;;;;;;4977116;28;20218;-83
2021/05/10 11:16:07;;;;;;;5.70;1.88;;;26.10;99.90;;;;;;4965213;29;20281;-85
2021/05/10 11:18:53;;;;;;;2.00;1.52;;;25.80;99.90;;;;;;4991189;28;20197;-88
2021/05/10 11:21:41;;;;;;;4.57;2.08;;;25.90;99.90;;;;;;4999465;28;20211;-87
2021/05/10 11:24:11;;;;;;;3.42;1.33;;;25.90;99.90;;;;;;4995813;28;20214;-81
2021/05/10 11:26:40;;;;;;;2.03;1.70;;;25.70;99.90;;;;;;4995901;28;20202;-87
2021/05/10 11:29:08;;;;;;;1.50;1.38;;;25.60;99.90;;;;;;5000455;28;20575;-84
2021/05/10 11:31:38;;;;;;;2.65;1.20;;;25.70;99.90;;;;;;5005584;28;20209;-87
2021/05/10 11:34:15;;;;;;;2.85;1.48;;;26.00;99.90;;;;;;4992908;28;20231;-82
2021/05/10 11:36:51;;;;;;;2.15;1.63;;;26.00;99.90;;;;;;4988311;28;20594;-82
2021/05/10 11:39:27;;;;;;;2.40;1.33;;;25.80;99.90;;;;;;4989970;28;20200;-84
2021/05/10 11:41:57;;;;;;;6.13;1.38;;;25.80;99.90;;;;;;5000780;28;20178;-89
2021/05/10 11:44:26;;;;;;;3.05;1.75;;;25.90;99.90;;;;;;4992086;28;20222;-89
2021/05/10 11:46:55;;;;;;;2.50;1.42;;;25.80;99.90;;;;;;4992522;28;20209;-82
2021/05/10 11:49:28;;;;;;;7.18;2.63;;;26.00;99.90;;;;;;4986409;28;20206;-83
2021/05/10 11:51:57;;;;;;;4.38;1.40;;;25.80;99.90;;;;;;4979965;28;20194;-82
2021/05/10 11:54:24;;;;;;;2.75;1.40;;;25.60;99.90;;;;;;4984938;28;20222;-88
2021/05/10 11:57:27;;;;;;;3.38;1.73;;;25.70;99.90;;;;;;4973677;28;20202;-84
2021/05/10 11:59:56;;;;;;;2.40;1.55;;;26.00;99.90;;;;;;4993301;28;20210;-80
2021/05/10 12:02:27;;;;;;;4.07;1.63;;;26.30;99.90;;;;;;5001534;28;20691;-81
2021/05/10 12:04:55;;;;;;;4.65;1.65;;;26.40;99.90;;;;;;4974627;28;20317;-81
2021/05/10 12:07:25;;;;;;;2.25;1.17;;;26.50;99.90;;;;;;4994960;28;20233;-81
2021/05/10 12:09:57;;;;;;;1.60;1.50;;;27.20;99.90;;;;;;4987447;28;20228;-82
2021/05/10 12:12:35;;;;;;;5.40;1.25;;;27.20;99.90;;;;;;4970951;28;20209;-80
2021/05/10 12:15:10;;;;;;;8.50;1.42;;;26.90;99.90;;;;;;4987430;28;20300;-80
2021/05/10 12:17:38;;;;;;;4.60;1.50;;;26.80;99.90;;;;;;4990688;28;20288;-80
2021/05/10 12:20:08;;;;;;;6.68;1.40;;;26.40;99.90;;;;;;4987775;28;20467;-80
2021/05/10 12:22:38;;;;;;;7.15;2.50;;;26.00;99.90;;;;;;4989347;28;20631;-79
2021/05/10 12:25:15;;;;;;;2.13;1.67;;;26.20;99.90;;;;;;4995871;28;20216;-84
2021/05/10 12:27:44;;;;;;;1.75;1.20;;;26.20;99.90;;;;;;4997704;28;20193;-82
2021/05/10 12:30:20;;;;;;;2.13;1.33;;;26.10;99.90;;;;;;4988243;28;20237;-83
2021/05/10 12:32:50;;;;;;;8.35;1.40;;;25.60;99.90;;;;;;4981341;28;20273;-78
2021/05/10 12:35:20;;;;;;;4.38;1.63;;;25.80;99.90;;;;;;4978299;28;20599;-78
2021/05/10 12:37:48;;;;;;;2.08;1.50;;;26.00;99.90;;;;;;4978209;28;20642;-77
2021/05/10 12:40:17;;;;;;;2.15;1.00;;;25.90;99.90;;;;;;4976838;28;20190;-79
2021/05/10 12:42:46;;;;;;;3.30;1.30;;;25.50;99.90;;;;;;4985020;28;20225;-79
2021/05/10 12:45:15;;;;;;;4.15;1.45;;;25.60;99.90;;;;;;4983940;28;20194;-80
2021/05/10 12:47:52;;;;;;;4.68;1.35;;;25.70;99.90;;;;;;4970319;28;20214;-81
2021/05/10 12:50:36;;;;;;;0.98;0.98;;;25.50;99.90;;;;;;4979263;28;20676;-80
2021/05/10 12:53:05;;;;;;;4.60;1.52;;;25.10;99.90;;;;;;4982340;28;20244;-80
2021/05/10 12:55:34;;;;;;;1.40;1.05;;;25.00;99.90;;;;;;4981755;28;20268;-79